Time;durP1;ratioP1;P1;durP2;ratioP2;P2;SDS_P1;SDS_P2;PMS_P1;PMS_P2;Temp;Humidity;BMP_temperature;BMP_pressure;BME280_temperature;BME280_humidity;BME280_pressure;Samples;Min_cycle;Max_cycle;Signal;HPM_P1;HPM_P2
2023/11/15 00:02:01;;;;;;;9.45;7.22;;;;;;;9.56;97.08;99467.00;5094043;28;20048;-66
2023/11/15 00:04:27;;;;;;;17.35;7.97;;;;;;;9.62;96.50;99462.88;5094511;28;20089;-66
2023/11/15 00:06:52;;;;;;;12.13;7.35;;;;;;;9.75;94.96;99463.22;5094726;28;20032;-68
2023/11/15 00:09:18;;;;;;;8.98;7.03;;;;;;;9.86;94.70;99460.25;5094891;28;20124;-66
2023/11/15 00:11:44;;;;;;;12.07;8.23;;;;;;;9.90;93.91;99461.59;5094659;28;20028;-66
2023/11/15 00:14:09;;;;;;;10.75;7.57;;;;;;;9.91;93.24;99464.06;5094987;28;20043;-66
2023/11/15 00:16:35;;;;;;;11.65;7.30;;;;;;;9.88;92.75;99455.63;5094467;28;20050;-66
2023/11/15 00:19:03;;;;;;;10.75;7.95;;;;;;;9.97;91.30;99473.16;5094351;28;20066;-66
2023/11/15 00:21:29;;;;;;;11.00;7.25;;;;;;;9.91;91.30;99484.41;5094542;28;20043;-68
2023/11/15 00:23:54;;;;;;;9.25;7.07;;;;;;;9.97;91.07;99474.97;5094136;28;20382;-65
2023/11/15 00:26:20;;;;;;;10.57;7.32;;;;;;;10.01;91.54;99469.19;5093228;28;20044;-66
2023/11/15 00:28:45;;;;;;;11.20;7.55;;;;;;;10.01;90.97;99455.97;5095097;28;20032;-66
2023/11/15 00:31:11;;;;;;;13.10;8.02;;;;;;;9.95;90.91;99445.22;5094197;28;20044;-66
2023/11/15 00:33:37;;;;;;;10.35;7.13;;;;;;;9.90;91.26;99451.84;5094543;28;20035;-68
2023/11/15 00:36:03;;;;;;;9.48;6.75;;;;;;;9.85;89.37;99446.22;5094171;28;20040;-68
2023/11/15 00:38:29;;;;;;;10.23;6.00;;;;;;;9.90;90.14;99445.72;5094267;28;20259;-66
2023/11/15 00:40:55;;;;;;;9.85;7.30;;;;;;;9.90;90.67;99454.47;5093963;28;20028;-66
2023/11/15 00:43:20;;;;;;;11.90;7.15;;;;;;;9.92;90.43;99452.50;5094216;28;20041;-66
2023/11/15 00:45:46;;;;;;;8.85;6.75;;;;;;;9.98;89.83;99453.66;5093469;28;20032;-67
2023/11/15 00:48:12;;;;;;;9.07;6.75;;;;;;;9.99;89.62;99459.78;5093922;28;20035;-67
2023/11/15 00:50:37;;;;;;;9.23;6.68;;;;;;;9.91;86.92;99456.13;5093858;28;20183;-64
2023/11/15 00:53:04;;;;;;;9.57;6.30;;;;;;;9.84;86.92;99449.03;5093498;28;20250;-64
2023/11/15 00:55:30;;;;;;;11.75;7.25;;;;;;;9.72;88.68;99439.75;5093065;28;20036;-64
2023/11/15 00:57:58;;;;;;;10.32;6.95;;;;;;;9.71;88.76;99432.81;5093951;28;20032;-63
2023/11/15 01:00:23;;;;;;;9.80;5.95;;;;;;;9.68;87.94;99431.31;5093207;28;20035;-63
2023/11/15 01:02:51;;;;;;;11.27;6.97;;;;;;;9.63;88.67;99425.72;5093889;28;20036;-63
2023/11/15 01:05:17;;;;;;;9.50;6.97;;;;;;;9.55;89.15;99438.91;5093916;28;20043;-65
2023/11/15 01:07:43;;;;;;;10.05;7.38;;;;;;;9.41;89.61;99448.31;5093760;28;20070;-63
2023/11/15 01:10:09;;;;;;;10.43;7.47;;;;;;;9.26;91.14;99437.50;5092913;28;20047;-66
2023/11/15 01:12:35;;;;;;;9.45;7.47;;;;;;;9.27;91.99;99443.59;5092963;28;20032;-63
2023/11/15 01:15:01;;;;;;;10.48;7.53;;;;;;;9.29;92.40;99450.38;5092620;28;20043;-63
2023/11/15 01:17:29;;;;;;;10.95;6.72;;;;;;;9.37;92.30;99443.50;5092393;28;20024;-65
2023/11/15 01:19:55;;;;;;;11.60;7.75;;;;;;;9.38;91.39;99429.31;5092753;28;20043;-68
2023/11/15 01:22:20;;;;;;;11.05;6.53;;;;;;;9.36;91.96;99434.72;5093073;28;20091;-66
2023/11/15 01:24:46;;;;;;;9.57;6.88;;;;;;;9.28;91.85;99440.81;5093383;28;20054;-64
2023/11/15 01:27:11;;;;;;;10.30;7.50;;;;;;;9.21;92.54;99441.63;5092983;28;20044;-64
2023/11/15 01:29:37;;;;;;;9.98;6.70;;;;;;;9.21;91.50;99431.03;5093942;28;20038;-64
2023/11/15 01:32:02;;;;;;;8.93;6.78;;;;;;;9.02;92.38;99423.38;5094014;28;20111;-66
2023/11/15 01:34:28;;;;;;;7.75;6.25;;;;;;;8.93;93.17;99420.72;5093674;28;20257;-65
2023/11/15 01:36:54;;;;;;;9.75;6.53;;;;;;;8.98;93.66;99414.13;5093338;28;20039;-64
2023/11/15 01:39:20;;;;;;;8.82;6.68;;;;;;;9.16;92.74;99412.22;5092790;28;20032;-64
2023/11/15 01:41:50;;;;;;;7.50;6.05;;;;;;;9.27;92.39;99406.63;5093327;28;20345;-64
2023/11/15 01:44:16;;;;;;;9.57;7.15;;;;;;;9.32;91.35;99399.03;5093671;28;20032;-64
2023/11/15 01:46:44;;;;;;;10.13;6.55;;;;;;;9.17;90.76;99387.44;5093386;28;20095;-64
2023/11/15 01:49:10;;;;;;;9.18;6.93;;;;;;;9.13;91.45;99389.59;5092925;28;20043;-65
2023/11/15 01:51:36;;;;;;;9.88;6.70;;;;;;;9.01;91.96;99380.31;5093548;28;20273;-65
2023/11/15 01:54:01;;;;;;;10.93;6.70;;;;;;;8.92;92.90;99384.75;5093948;28;20151;-64
2023/11/15 01:56:27;;;;;;;12.57;7.18;;;;;;;9.07;92.77;99399.97;5092834;28;20443;-65
2023/11/15 01:58:52;;;;;;;8.40;6.22;;;;;;;9.13;92.73;99407.25;5093637;28;20024;-64
2023/11/15 02:01:19;;;;;;;9.10;5.97;;;;;;;8.87;94.21;99413.44;5093200;28;20237;-64
2023/11/15 02:03:45;;;;;;;8.48;5.95;;;;;;;8.95;93.67;99400.25;5092673;28;20040;-65
2023/11/15 02:06:10;;;;;;;8.27;5.90;;;;;;;8.90;93.72;99399.91;5094774;28;20043;-65
2023/11/15 02:08:36;;;;;;;9.02;6.22;;;;;;;8.89;94.05;99403.53;5093395;28;20230;-64
2023/11/15 02:11:03;;;;;;;10.55;6.75;;;;;;;8.92;94.23;99408.50;5095638;28;20384;-64
2023/11/15 02:13:29;;;;;;;9.75;6.45;;;;;;;8.84;95.40;99421.69;5096018;28;20031;-64
2023/11/15 02:15:57;;;;;;;12.73;7.18;;;;;;;8.75;96.66;99425.25;5095744;28;20058;-64
2023/11/15 02:18:26;;;;;;;10.57;7.55;;;;;;;8.76;97.16;99419.00;5095762;28;20036;-65
2023/11/15 02:20:52;;;;;;;11.15;7.05;;;;;;;8.76;97.52;99416.34;5095428;28;20051;-65
2023/11/15 02:23:21;;;;;;;12.57;6.70;;;;;;;8.76;97.21;99418.16;5095430;28;20070;-64
2023/11/15 02:25:51;;;;;;;9.95;6.65;;;;;;;8.60;97.71;99417.13;5095949;28;20028;-64
2023/11/15 02:28:16;;;;;;;10.45;7.57;;;;;;;8.69;97.16;99409.22;5096140;28;20743;-64
2023/11/15 02:30:42;;;;;;;12.73;7.47;;;;;;;8.75;96.21;99408.59;5095874;28;20249;-64
2023/11/15 02:33:07;;;;;;;9.65;7.10;;;;;;;8.82;96.06;99413.09;5095984;28;20032;-64
2023/11/15 02:35:33;;;;;;;12.77;7.07;;;;;;;8.87;95.34;99428.44;5095823;28;20044;-65
2023/11/15 02:37:58;;;;;;;13.70;7.43;;;;;;;8.82;95.51;99415.72;5096358;28;20199;-65
2023/11/15 02:40:24;;;;;;;14.70;7.78;;;;;;;8.85;95.43;99414.59;5095249;28;20334;-64
2023/11/15 02:42:49;;;;;;;15.48;8.82;;;;;;;8.89;95.72;99421.19;5097016;28;20055;-64
2023/11/15 02:45:16;;;;;;;15.73;7.80;;;;;;;8.96;95.38;99417.75;5095546;28;20044;-64
2023/11/15 02:47:42;;;;;;;9.68;7.50;;;;;;;9.03;95.39;99422.41;5095574;28;20039;-64
2023/11/15 02:50:08;;;;;;;16.75;8.57;;;;;;;8.99;95.18;99429.00;5096198;28;20107;-66
2023/11/15 02:52:35;;;;;;;14.30;8.10;;;;;;;8.92;95.69;99429.63;5095718;28;20260;-66
2023/11/15 02:55:01;;;;;;;18.65;8.55;;;;;;;9.10;94.44;99431.34;5095892;28;20032;-64
2023/11/15 02:57:26;;;;;;;14.20;9.10;;;;;;;9.09;94.29;99429.69;5096066;28;20122;-64
2023/11/15 02:59:52;;;;;;;13.77;8.70;;;;;;;9.09;94.27;99422.59;5096262;28;20252;-64
2023/11/15 03:02:17;;;;;;;16.35;8.95;;;;;;;9.17;93.77;99419.97;5095407;28;20035;-64
2023/11/15 03:04:43;;;;;;;13.55;8.43;;;;;;;9.13;93.84;99417.81;5094923;28;20035;-65
2023/11/15 03:07:08;;;;;;;13.25;9.63;;;;;;;9.14;93.73;99408.91;5096881;28;20331;-65
2023/11/15 03:09:33;;;;;;;16.75;9.40;;;;;;;9.19;94.30;99403.97;5094581;28;20093;-64
2023/11/15 03:11:59;;;;;;;15.82;9.23;;;;;;;9.27;93.91;99403.97;5095402;28;20042;-64
2023/11/15 03:14:26;;;;;;;14.05;8.85;;;;;;;9.35;93.03;99409.28;5096469;28;20044;-64
2023/11/15 03:16:52;;;;;;;18.38;8.65;;;;;;;9.41;93.06;99398.09;5095949;28;20035;-64
2023/11/15 03:19:18;;;;;;;15.93;9.15;;;;;;;9.46;92.40;99394.97;5094980;28;20099;-66
2023/11/15 03:21:43;;;;;;;15.63;10.43;;;;;;;9.37;92.94;99388.84;5093513;28;20028;-66
2023/11/15 03:24:09;;;;;;;17.63;11.68;;;;;;;9.09;93.86;99388.25;5093772;28;20209;-64
2023/11/15 03:26:35;;;;;;;16.10;10.13;;;;;;;9.14;94.09;99383.31;5095304;28;20245;-64
2023/11/15 03:29:01;;;;;;;16.00;9.52;;;;;;;9.16;94.17;99399.81;5094269;28;20131;-64
2023/11/15 03:31:26;;;;;;;17.50;11.60;;;;;;;8.96;95.71;99398.44;5094851;28;20040;-64
2023/11/15 03:33:51;;;;;;;17.90;10.77;;;;;;;9.03;95.48;99393.34;5096270;28;20355;-65
2023/11/15 03:36:17;;;;;;;18.45;11.18;;;;;;;8.70;96.95;99395.03;5094944;28;20076;-66
2023/11/15 03:38:43;;;;;;;19.10;11.27;;;;;;;8.84;96.89;99397.91;5095004;28;20040;-64
2023/11/15 03:41:09;;;;;;;19.27;11.98;;;;;;;8.87;96.49;99386.22;5095285;28;20234;-64
2023/11/15 03:43:37;;;;;;;21.15;11.45;;;;;;;8.95;96.40;99375.66;5094791;28;20402;-65
2023/11/15 03:46:04;;;;;;;18.80;12.65;;;;;;;8.96;95.91;99364.13;5094368;28;20032;-64
2023/11/15 03:48:29;;;;;;;19.60;11.45;;;;;;;9.07;95.06;99371.75;5094513;28;20340;-66
2023/11/15 03:50:55;;;;;;;19.15;12.88;;;;;;;9.09;95.33;99376.84;5093943;28;20071;-66
2023/11/15 03:53:21;;;;;;;19.17;12.15;;;;;;;9.19;94.97;99373.09;5094128;28;20036;-66
2023/11/15 03:55:47;;;;;;;19.33;12.23;;;;;;;9.21;93.87;99362.34;5094460;28;20078;-66
2023/11/15 03:58:12;;;;;;;17.77;11.25;;;;;;;9.25;94.03;99361.03;5094480;28;20107;-66
2023/11/15 04:00:38;;;;;;;18.20;11.95;;;;;;;9.21;93.03;99371.13;5095047;28;20024;-67
2023/11/15 04:03:03;;;;;;;19.58;11.85;;;;;;;9.07;94.30;99361.19;5095391;28;20409;-67
2023/11/15 04:05:29;;;;;;;17.65;11.55;;;;;;;9.10;93.96;99360.84;5094759;28;20375;-65
2023/11/15 04:07:54;;;;;;;20.30;10.98;;;;;;;9.03;92.01;99351.09;5094636;28;20217;-65
2023/11/15 04:10:21;;;;;;;17.40;11.27;;;;;;;8.96;90.95;99358.84;5094706;28;20049;-65
2023/11/15 04:12:46;;;;;;;17.00;10.82;;;;;;;8.65;91.07;99355.94;5094900;28;20032;-66
2023/11/15 04:15:12;;;;;;;17.27;10.57;;;;;;;8.27;93.44;99357.19;5093572;28;20404;-67
2023/11/15 04:17:37;;;;;;;17.60;9.60;;;;;;;8.00;93.32;99360.81;5094330;28;20103;-65
2023/11/15 04:20:06;;;;;;;17.00;10.95;;;;;;;7.78;95.49;99359.50;5094424;28;20299;-65
2023/11/15 04:22:32;;;;;;;15.38;10.18;;;;;;;7.81;96.61;99350.47;5093626;28;20036;-66
2023/11/15 04:24:57;;;;;;;17.75;10.10;;;;;;;7.83;96.43;99349.31;5093252;28;20046;-65
2023/11/15 04:27:23;;;;;;;14.90;10.05;;;;;;;7.97;97.12;99340.84;5089702;28;20392;-67
2023/11/15 04:29:48;;;;;;;15.40;9.30;;;;;;;8.19;96.72;99343.94;5081119;28;20029;-67
2023/11/15 04:32:14;;;;;;;16.65;10.85;;;;;;;8.06;96.68;99338.28;5081707;28;20051;-66
2023/11/15 04:34:39;;;;;;;22.20;10.05;;;;;;;8.08;96.19;99341.56;5080945;28;20040;-65
2023/11/15 04:37:05;;;;;;;16.17;10.00;;;;;;;7.90;97.04;99325.81;5080531;28;20322;-65
2023/11/15 04:39:30;;;;;;;16.88;11.52;;;;;;;7.49;96.95;99316.78;5090847;28;20532;-67
2023/11/15 04:41:55;;;;;;;22.00;13.07;;;;;;;7.25;99.05;99302.41;5081155;28;20032;-67
2023/11/15 04:44:21;;;;;;;26.75;15.98;;;;;;;7.26;99.44;99303.25;5079890;28;20102;-65
2023/11/15 04:46:47;;;;;;;30.00;19.08;;;;;;;7.30;100.00;99302.00;5090061;28;20387;-65
2023/11/15 04:49:12;;;;;;;29.42;18.58;;;;;;;7.07;100.00;99254.19;5089200;28;20361;-65
2023/11/15 04:51:38;;;;;;;24.38;15.93;;;;;;;7.21;100.00;99302.88;5080617;28;20040;-67
2023/11/15 04:54:05;;;;;;;20.77;11.13;;;;;;;7.43;100.00;99305.06;5081355;28;20338;-67
2023/11/15 04:56:32;;;;;;;18.35;10.45;;;;;;;7.63;98.83;99295.16;5089528;28;20087;-66
2023/11/15 04:58:57;;;;;;;14.88;9.60;;;;;;;7.64;98.21;99294.19;5081493;28;20075;-67
2023/11/15 05:01:23;;;;;;;14.02;8.38;;;;;;;7.67;98.72;99292.06;5080903;28;20027;-66
2023/11/15 05:03:48;;;;;;;15.63;7.60;;;;;;;7.84;97.81;99294.81;5081584;28;20032;-66
2023/11/15 05:06:14;;;;;;;12.95;8.05;;;;;;;7.94;96.81;99306.91;5081429;28;20318;-67
2023/11/15 05:08:39;;;;;;;13.27;7.70;;;;;;;7.89;97.04;99290.72;5081588;28;20059;-65
2023/11/15 05:11:05;;;;;;;10.07;6.45;;;;;;;7.79;96.30;99281.25;5081097;28;20044;-65
2023/11/15 05:13:31;;;;;;;13.00;7.40;;;;;;;7.74;95.62;99279.09;5080819;28;20371;-65
2023/11/15 05:15:57;;;;;;;13.18;7.63;;;;;;;7.48;96.00;99258.00;5080343;28;20051;-65
2023/11/15 05:18:23;;;;;;;13.48;8.27;;;;;;;7.20;96.11;99249.38;5086490;28;20035;-67
2023/11/15 05:20:48;;;;;;;15.25;7.22;;;;;;;7.15;97.88;99248.19;5083442;28;20285;-66
2023/11/15 05:23:14;;;;;;;22.88;8.57;;;;;;;7.28;97.31;99259.16;5080961;28;20241;-65
2023/11/15 05:25:40;;;;;;;11.45;7.13;;;;;;;7.40;98.33;99250.06;5081383;28;20032;-65
2023/11/15 05:28:06;;;;;;;12.85;8.15;;;;;;;7.63;97.67;99245.91;5081014;28;20357;-65
2023/11/15 05:30:31;;;;;;;11.52;6.72;;;;;;;7.86;96.49;99243.59;5079903;28;20326;-66
2023/11/15 05:32:58;;;;;;;12.57;8.05;;;;;;;7.98;94.99;99236.22;5080395;28;20048;-67
2023/11/15 05:35:23;;;;;;;15.27;7.78;;;;;;;8.10;95.81;99228.84;5081054;28;20040;-65
2023/11/15 05:37:49;;;;;;;11.85;7.72;;;;;;;8.25;94.51;99229.91;5082200;28;20028;-65
2023/11/15 05:40:18;;;;;;;15.05;8.25;;;;;;;8.43;94.29;99235.13;5080006;28;20257;-65
2023/11/15 05:42:44;;;;;;;14.05;8.18;;;;;;;8.56;93.71;99227.56;5090253;28;20236;-65
2023/11/15 05:45:10;;;;;;;15.05;8.45;;;;;;;8.63;92.62;99228.59;5081433;28;20042;-67
2023/11/15 05:47:40;;;;;;;14.07;9.18;;;;;;;8.69;93.77;99227.94;5093328;28;20031;-67
2023/11/15 05:50:10;;;;;;;13.80;9.73;;;;;;;8.79;93.05;99220.69;5084880;28;20040;-65
2023/11/15 05:52:39;;;;;;;14.93;9.88;;;;;;;8.79;92.52;99228.59;5084621;28;20039;-65
2023/11/15 05:55:06;;;;;;;14.55;9.00;;;;;;;8.70;93.53;99234.88;5085005;28;20036;-65
2023/11/15 05:57:32;;;;;;;16.55;10.75;;;;;;;8.71;93.87;99238.34;5082837;28;20233;-65
2023/11/15 05:59:58;;;;;;;17.10;10.38;;;;;;;8.71;94.50;99241.78;5094042;28;20142;-65
2023/11/15 06:02:24;;;;;;;14.27;9.15;;;;;;;8.62;94.50;99246.22;5084107;28;20208;-67
2023/11/15 06:04:49;;;;;;;16.23;8.60;;;;;;;8.75;94.49;99258.13;5083360;28;20040;-67
2023/11/15 06:07:16;;;;;;;16.08;9.15;;;;;;;8.86;94.06;99231.41;5083140;28;20031;-65
2023/11/15 06:09:42;;;;;;;15.43;9.27;;;;;;;8.75;94.80;99242.28;5083993;28;20050;-65
2023/11/15 06:12:07;;;;;;;12.80;8.13;;;;;;;8.88;94.58;99234.72;5084012;28;20318;-65
2023/11/15 06:14:33;;;;;;;16.10;8.85;;;;;;;8.93;94.81;99237.69;5083546;28;20154;-65
2023/11/15 06:16:58;;;;;;;16.75;9.93;;;;;;;9.03;94.53;99240.19;5084887;28;20044;-66
2023/11/15 06:19:24;;;;;;;17.50;9.70;;;;;;;8.82;95.60;99233.56;5092061;28;20035;-67
2023/11/15 06:21:49;;;;;;;18.80;9.27;;;;;;;8.84;96.51;99233.41;5083046;28;20028;-65
2023/11/15 06:24:15;;;;;;;12.68;8.65;;;;;;;8.93;96.61;99233.25;5083931;28;20040;-65
2023/11/15 06:26:41;;;;;;;15.65;10.35;;;;;;;9.08;96.18;99216.75;5084086;28;20035;-64
2023/11/15 06:29:07;;;;;;;13.82;8.88;;;;;;;9.42;94.33;99224.50;5083302;28;20393;-66
2023/11/15 06:31:32;;;;;;;11.65;8.07;;;;;;;9.52;93.79;99225.16;5083645;28;20049;-66
2023/11/15 06:33:58;;;;;;;12.35;8.05;;;;;;;9.51;93.96;99224.34;5084070;28;20258;-66
2023/11/15 06:36:24;;;;;;;10.98;8.00;;;;;;;9.62;94.95;99222.31;5088519;28;20036;-65
2023/11/15 06:38:49;;;;;;;12.40;7.57;;;;;;;9.53;95.03;99213.59;5086815;28;20037;-65
2023/11/15 06:41:15;;;;;;;19.35;8.75;;;;;;;9.76;94.80;99208.41;5083237;28;20068;-65
2023/11/15 06:43:41;;;;;;;12.70;7.85;;;;;;;9.92;95.02;99218.94;5082951;28;20040;-65
2023/11/15 06:46:07;;;;;;;9.77;7.28;;;;;;;10.13;94.13;99224.47;5082836;28;20037;-66
2023/11/15 06:48:33;;;;;;;11.80;7.10;;;;;;;10.10;93.66;99219.53;5082914;28;20048;-66
2023/11/15 06:50:59;;;;;;;16.10;9.05;;;;;;;10.07;93.96;99221.69;5083035;28;20040;-66
2023/11/15 06:53:24;;;;;;;14.77;8.27;;;;;;;10.30;92.63;99227.06;5082595;28;20036;-65
2023/11/15 06:55:50;;;;;;;12.00;8.02;;;;;;;10.35;92.05;99230.84;5083149;28;20206;-65
2023/11/15 06:58:16;;;;;;;15.48;9.18;;;;;;;10.21;93.02;99213.06;5082446;28;20041;-67
2023/11/15 07:00:47;;;;;;;16.85;9.60;;;;;;;10.43;93.36;99225.56;5083529;28;20087;-66
2023/11/15 07:03:13;;;;;;;14.63;8.88;;;;;;;10.49;93.50;99234.63;5082876;28;20032;-65
2023/11/15 07:05:40;;;;;;;13.98;10.18;;;;;;;10.28;94.02;99219.31;5091944;28;20028;-65
2023/11/15 07:08:11;;;;;;;15.02;9.88;;;;;;;10.18;94.61;99232.72;5083156;28;20340;-65
2023/11/15 07:10:37;;;;;;;18.42;10.63;;;;;;;10.04;95.89;99228.16;5087672;28;20028;-67
2023/11/15 07:13:06;;;;;;;15.75;9.52;;;;;;;10.10;96.50;99218.72;5094633;28;20032;-66
2023/11/15 07:15:31;;;;;;;17.48;11.00;;;;;;;10.08;95.58;99231.28;5093041;28;20077;-65
2023/11/15 07:17:57;;;;;;;16.05;9.10;;;;;;;10.02;96.86;99224.84;5097672;28;20036;-65
2023/11/15 07:20:22;;;;;;;12.88;9.48;;;;;;;10.17;96.75;99223.13;5097640;28;20171;-65
2023/11/15 07:22:49;;;;;;;13.30;9.15;;;;;;;10.24;96.32;99225.94;5096881;28;20101;-65
2023/11/15 07:25:15;;;;;;;16.40;10.65;;;;;;;10.34;96.06;99237.16;5096891;28;20028;-66
2023/11/15 07:27:40;;;;;;;20.30;11.40;;;;;;;10.32;96.01;99228.56;5097513;28;20057;-67
2023/11/15 07:30:08;;;;;;;15.20;11.02;;;;;;;10.35;97.30;99214.97;5097633;28;20056;-65
2023/11/15 07:32:34;;;;;;;15.20;10.60;;;;;;;10.41;97.38;99208.19;5096946;28;20364;-65
2023/11/15 07:34:59;;;;;;;17.20;10.23;;;;;;;10.45;96.86;99209.50;5097397;28;20101;-65
2023/11/15 07:37:24;;;;;;;15.32;10.43;;;;;;;10.43;96.87;99214.13;5096795;28;20305;-66
2023/11/15 07:39:50;;;;;;;16.80;10.88;;;;;;;10.51;97.71;99219.38;5097672;28;20028;-67
2023/11/15 07:42:17;;;;;;;16.95;9.85;;;;;;;10.58;96.78;99203.63;5096800;28;20036;-66
2023/11/15 07:44:43;;;;;;;12.95;9.55;;;;;;;10.57;97.67;99202.81;5096738;28;20081;-65
2023/11/15 07:47:13;;;;;;;16.23;10.77;;;;;;;10.75;97.68;99203.34;5096648;28;20099;-65
2023/11/15 07:49:39;;;;;;;16.73;9.80;;;;;;;10.86;96.84;99194.16;5097029;28;20032;-66
2023/11/15 07:52:05;;;;;;;16.63;10.35;;;;;;;11.00;97.40;99209.28;5097286;28;20062;-67
2023/11/15 07:54:33;;;;;;;16.63;11.80;;;;;;;11.10;97.19;99204.56;5097112;28;20427;-65
2023/11/15 07:56:58;;;;;;;12.55;9.30;;;;;;;11.14;96.78;99203.22;5097696;28;20044;-65
2023/11/15 07:59:26;;;;;;;17.67;10.27;;;;;;;11.17;96.42;99197.53;5097022;28;20157;-65
2023/11/15 08:01:52;;;;;;;12.98;9.13;;;;;;;11.15;95.70;99204.84;5097000;28;20032;-66
2023/11/15 08:04:18;;;;;;;15.25;9.63;;;;;;;11.05;96.69;99198.97;5097064;28;20031;-66
2023/11/15 08:06:44;;;;;;;15.73;11.15;;;;;;;11.16;97.08;99200.38;5095705;28;20028;-67
2023/11/15 08:09:23;;;;;;;18.58;10.95;;;;;;;11.31;96.70;99184.50;5096082;28;20050;-65
2023/11/15 08:11:51;;;;;;;17.90;11.02;;;;;;;11.44;96.29;99190.00;5096612;28;20325;-65
2023/11/15 08:14:17;;;;;;;17.92;11.07;;;;;;;11.46;95.63;99196.81;5096596;28;20036;-65
2023/11/15 08:16:43;;;;;;;19.13;11.30;;;;;;;11.49;94.44;99206.22;5096366;28;20375;-66
2023/11/15 08:19:08;;;;;;;19.42;11.57;;;;;;;11.37;95.36;99199.69;5096252;28;20115;-67
2023/11/15 08:21:34;;;;;;;24.65;13.30;;;;;;;11.30;94.58;99204.06;5096353;28;20035;-66
2023/11/15 08:23:59;;;;;;;22.77;12.60;;;;;;;11.32;95.28;99196.75;5095836;28;20263;-66
2023/11/15 08:26:26;;;;;;;17.98;10.82;;;;;;;11.57;95.07;99195.53;5096630;28;20031;-68
2023/11/15 08:28:51;;;;;;;20.33;11.30;;;;;;;11.71;94.40;99165.56;5096643;28;20338;-67
2023/11/15 08:31:23;;;;;;;22.95;13.30;;;;;;;11.65;94.02;99187.50;5096052;28;20651;-66
2023/11/15 08:33:49;;;;;;;21.17;12.13;;;;;;;11.54;95.32;99195.91;5096688;28;20044;-66
2023/11/15 08:36:14;;;;;;;20.88;12.70;;;;;;;11.75;94.37;99197.84;5096524;28;20273;-66
2023/11/15 08:38:40;;;;;;;55.55;15.10;;;;;;;11.70;94.53;99177.16;5096107;28;20438;-66
2023/11/15 08:41:06;;;;;;;17.65;11.27;;;;;;;11.75;94.15;99197.84;5095987;28;20051;-66
2023/11/15 08:43:31;;;;;;;15.38;11.07;;;;;;;11.80;93.77;99174.28;5094894;28;20329;-66
2023/11/15 08:45:57;;;;;;;16.85;10.60;;;;;;;11.90;93.25;99192.56;5094049;28;20036;-65
2023/11/15 08:48:23;;;;;;;19.02;10.93;;;;;;;11.90;93.43;99171.34;5094480;28;20039;-65
2023/11/15 08:50:48;;;;;;;16.65;11.55;;;;;;;11.79;94.41;99180.59;5094049;28;20308;-66
2023/11/15 08:53:16;;;;;;;13.88;10.02;;;;;;;11.75;94.33;99166.00;5093183;28;20036;-66
2023/11/15 08:55:44;;;;;;;16.75;9.93;;;;;;;11.76;94.15;99171.13;5093729;28;20211;-65
2023/11/15 08:58:14;;;;;;;16.45;11.98;;;;;;;12.01;93.99;99155.78;5093380;28;20044;-65
2023/11/15 09:00:44;;;;;;;16.90;10.45;;;;;;;12.14;93.03;99152.44;5096052;28;20195;-66
2023/11/15 09:03:09;;;;;;;15.18;9.90;;;;;;;12.19;92.99;99142.09;5094610;28;20249;-65
2023/11/15 09:05:39;;;;;;;17.67;11.05;;;;;;;12.26;92.56;99142.16;5095632;28;20047;-65
2023/11/15 09:08:05;;;;;;;14.88;10.52;;;;;;;12.26;92.55;99153.59;5095382;28;20036;-66
2023/11/15 09:10:31;;;;;;;17.63;10.73;;;;;;;12.26;93.38;99150.97;5095976;28;20046;-66
2023/11/15 09:12:58;;;;;;;18.92;10.57;;;;;;;12.32;92.55;99152.88;5096335;28;20032;-65
2023/11/15 09:15:24;;;;;;;16.30;9.73;;;;;;;12.41;92.34;99146.44;5095740;28;20225;-65
2023/11/15 09:17:50;;;;;;;15.18;9.52;;;;;;;12.61;90.96;99138.69;5096205;28;20032;-65
2023/11/15 09:20:25;;;;;;;21.92;11.15;;;;;;;12.68;90.96;99138.75;5096796;28;20024;-65
2023/11/15 09:22:54;;;;;;;15.30;9.82;;;;;;;12.81;90.40;99130.91;5099707;28;20028;-64
2023/11/15 09:25:30;;;;;;;13.88;8.88;;;;;;;12.76;88.90;99130.66;5100109;28;20074;-65
2023/11/15 09:27:59;;;;;;;11.85;6.82;;;;;;;12.73;87.30;99131.84;5100513;28;20062;-65
2023/11/15 09:30:25;;;;;;;13.15;7.60;;;;;;;12.85;86.73;99128.69;5099213;28;20085;-65
2023/11/15 09:32:51;;;;;;;11.75;6.75;;;;;;;12.96;87.02;99122.84;5100568;28;20039;-64
2023/11/15 09:35:27;;;;;;;15.30;9.43;;;;;;;13.09;85.56;99121.09;5099720;28;20031;-65
2023/11/15 09:37:53;;;;;;;14.32;9.85;;;;;;;13.16;85.85;99107.03;5097598;28;20032;-67
2023/11/15 09:40:21;;;;;;;13.10;7.80;;;;;;;13.24;85.30;99112.25;5099024;28;20032;-66
2023/11/15 09:42:51;;;;;;;11.40;7.10;;;;;;;13.36;85.48;99103.53;5099499;28;20047;-65
2023/11/15 09:45:19;;;;;;;13.25;7.50;;;;;;;13.45;84.03;99106.03;5099352;28;20032;-66
2023/11/15 09:47:52;;;;;;;11.95;7.57;;;;;;;13.50;83.23;99107.09;5099700;28;20123;-65
2023/11/15 09:50:22;;;;;;;12.40;6.63;;;;;;;13.53;81.61;99117.38;5099211;28;20027;-65
2023/11/15 09:52:52;;;;;;;9.50;6.35;;;;;;;13.49;81.61;99109.94;5099245;28;20032;-67
2023/11/15 09:55:23;;;;;;;8.88;6.05;;;;;;;13.42;80.75;99099.25;5096580;28;20024;-67
2023/11/15 09:57:51;;;;;;;10.07;7.43;;;;;;;13.55;81.08;99095.88;5099520;28;20344;-65
2023/11/15 10:00:19;;;;;;;11.25;9.07;;;;;;;13.65;81.82;99093.69;5099437;28;20059;-66
2023/11/15 10:02:45;;;;;;;8.98;6.47;;;;;;;13.67;82.83;99089.00;5099528;28;20074;-65
2023/11/15 10:05:18;;;;;;;10.02;6.72;;;;;;;13.62;82.80;99086.91;5099141;28;20040;-65
2023/11/15 10:07:44;;;;;;;9.50;6.03;;;;;;;13.71;82.69;99069.78;5099197;28;20292;-67
2023/11/15 10:10:21;;;;;;;16.27;6.97;;;;;;;13.81;80.99;99061.41;5098875;28;20071;-67
2023/11/15 10:12:53;;;;;;;13.27;6.35;;;;;;;13.86;80.60;99052.84;5099496;28;20036;-66
2023/11/15 10:15:39;;;;;;;10.18;7.45;;;;;;;13.87;81.67;99055.28;5096947;28;20047;-65
2023/11/15 10:18:08;;;;;;;9.93;6.55;;;;;;;13.81;82.11;99064.06;5098563;28;20349;-66
2023/11/15 10:20:35;;;;;;;11.77;7.82;;;;;;;13.89;82.63;99069.22;5098818;28;20349;-66
2023/11/15 10:23:01;;;;;;;19.73;8.95;;;;;;;13.80;85.13;99054.47;5098939;28;20039;-65
2023/11/15 10:25:27;;;;;;;16.65;8.20;;;;;;;14.01;83.96;99061.47;5098818;28;20104;-65
2023/11/15 10:28:07;;;;;;;8.68;6.07;;;;;;;14.04;83.64;99061.91;5098815;28;20244;-65
2023/11/15 10:30:33;;;;;;;12.60;7.05;;;;;;;14.12;82.65;99055.56;5098376;28;20702;-67
2023/11/15 10:33:10;;;;;;;14.82;7.38;;;;;;;14.28;82.08;99063.19;5098882;28;20049;-67
2023/11/15 10:35:36;;;;;;;11.40;6.57;;;;;;;14.27;82.50;99055.38;5098239;28;20308;-64
2023/11/15 10:38:02;;;;;;;8.45;6.03;;;;;;;14.34;81.03;99051.72;5097818;28;20046;-65
2023/11/15 10:40:30;;;;;;;10.80;6.07;;;;;;;14.25;81.86;99055.59;5098492;28;20032;-64
2023/11/15 10:42:58;;;;;;;14.65;6.10;;;;;;;14.19;83.23;99052.91;5098539;28;20066;-65
2023/11/15 10:45:27;;;;;;;7.90;6.03;;;;;;;14.29;82.45;99043.50;5097150;28;20064;-64
2023/11/15 10:47:58;;;;;;;14.13;7.53;;;;;;;14.24;83.80;99037.97;5098761;28;20043;-65
2023/11/15 10:50:31;;;;;;;12.50;7.40;;;;;;;14.29;85.06;99059.50;5098004;28;20023;-64
2023/11/15 10:52:59;;;;;;;11.87;7.03;;;;;;;14.24;84.58;99079.75;5098072;28;20047;-66
2023/11/15 10:55:27;;;;;;;14.02;7.18;;;;;;;14.19;85.78;99079.53;5098402;28;20094;-66
2023/11/15 10:57:58;;;;;;;14.02;7.20;;;;;;;14.27;86.51;99076.69;5098667;28;20099;-64
2023/11/15 11:00:25;;;;;;;11.57;7.32;;;;;;;14.27;86.26;99085.50;5098166;28;20046;-65
2023/11/15 11:02:51;;;;;;;13.05;6.93;;;;;;;14.28;84.63;99086.31;5096300;28;20043;-65
2023/11/15 11:05:48;;;;;;;8.48;5.80;;;;;;;14.42;84.12;99097.81;5094646;28;20106;-65
2023/11/15 11:08:22;;;;;;;12.75;6.28;;;;;;;14.58;81.07;99084.19;5096162;28;20146;-65
2023/11/15 11:10:57;;;;;;;9.98;5.35;;;;;;;14.74;81.29;99093.63;5094665;28;20105;-66
2023/11/15 11:13:23;;;;;;;15.07;6.88;;;;;;;14.86;81.69;99107.97;5094357;28;20343;-65
2023/11/15 11:15:49;;;;;;;11.80;5.72;;;;;;;14.98;81.06;99107.16;5093576;28;20051;-64
2023/11/15 11:18:19;;;;;;;8.93;5.47;;;;;;;15.07;82.60;99120.25;5095350;28;20032;-64
2023/11/15 11:21:02;;;;;;;10.45;5.18;;;;;;;15.07;80.29;99126.41;5095549;28;20082;-65
2023/11/15 11:23:29;;;;;;;7.72;4.90;;;;;;;15.10;79.70;99120.69;5094864;28;20063;-64
2023/11/15 11:26:34;;;;;;;6.40;4.60;;;;;;;15.14;80.08;99113.91;5094887;28;20319;-65
2023/11/15 11:29:03;;;;;;;6.70;5.32;;;;;;;15.25;80.20;99104.44;5094164;28;20288;-66